sensor_id;sensor_type;location;lat;lon;timestamp;temperature;humidity
11107;DHT22;5607;48.302;14.294;2023-03-01T00:01:52;3.30;99.90
11107;DHT22;5607;48.302;14.294;2023-03-01T00:04:39;3.30;99.90
11107;DHT22;5607;48.302;14.294;2023-03-01T00:07:25;3.10;99.90
11107;DHT22;5607;48.302;14.294;2023-03-01T00:10:12;3.10;99.90
11107;DHT22;5607;48.302;14.294;2023-03-01T00:12:58;3.00;99.90
11107;DHT22;5607;48.302;14.294;2023-03-01T00:15:45;3.10;99.90
11107;DHT22;5607;48.302;14.294;2023-03-01T00:18:32;3.10;99.90
11107;DHT22;5607;48.302;14.294;2023-03-01T00:21:19;3.10;99.90
11107;DHT22;5607;48.302;14.294;2023-03-01T00:24:07;3.20;99.90
11107;DHT22;5607;48.302;14.294;2023-03-01T00:26:54;3.10;99.90
11107;DHT22;5607;48.302;14.294;2023-03-01T00:29:41;3.10;99.90
11107;DHT22;5607;48.302;14.294;2023-03-01T00:32:28;3.10;99.90
11107;DHT22;5607;48.302;14.294;2023-03-01T00:35:15;3.10;99.90
11107;DHT22;5607;48.302;14.294;2023-03-01T00:38:02;3.10;99.90
11107;DHT22;5607;48.302;14.294;2023-03-01T00:40:50;3.00;99.90
11107;DHT22;5607;48.302;14.294;2023-03-01T00:43:36;3.00;99.90
11107;DHT22;5607;48.302;14.294;2023-03-01T00:46:24;3.00;99.90
11107;DHT22;5607;48.302;14.294;2023-03-01T00:49:12;3.00;99.90
11107;DHT22;5607;48.302;14.294;2023-03-01T00:51:59;3.10;99.90
11107;DHT22;5607;48.302;14.294;2023-03-01T00:54:46;3.10;99.90
11107;DHT22;5607;48.302;14.294;2023-03-01T00:57:32;3.10;99.90
11107;DHT22;5607;48.302;14.294;2023-03-01T01:00:19;3.00;99.90
11107;DHT22;5607;48.302;14.294;2023-03-01T01:03:06;3.00;99.90
11107;DHT22;5607;48.302;14.294;2023-03-01T01:05:53;3.10;99.90
11107;DHT22;5607;48.302;14.294;2023-03-01T01:08:39;3.10;99.90
11107;DHT22;5607;48.302;14.294;2023-03-01T01:11:27;3.00;99.90
11107;DHT22;5607;48.302;14.294;2023-03-01T01:14:15;3.10;99.90
11107;DHT22;5607;48.302;14.294;2023-03-01T01:17:02;3.10;99.90
11107;DHT22;5607;48.302;14.294;2023-03-01T01:19:49;3.00;99.90
11107;DHT22;5607;48.302;14.294;2023-03-01T01:22:36;3.00;99.90
11107;DHT22;5607;48.302;14.294;2023-03-01T01:25:22;2.90;99.90
11107;DHT22;5607;48.302;14.294;2023-03-01T01:28:11;2.90;99.90
11107;DHT22;5607;48.302;14.294;2023-03-01T01:30:57;2.90;99.90
11107;DHT22;5607;48.302;14.294;2023-03-01T01:33:44;2.80;99.90
11107;DHT22;5607;48.302;14.294;2023-03-01T01:36:31;2.80;99.90
11107;DHT22;5607;48.302;14.294;2023-03-01T01:39:20;2.80;99.90
11107;DHT22;5607;48.302;14.294;2023-03-01T01:42:11;2.70;99.90
11107;DHT22;5607;48.302;14.294;2023-03-01T01:48:23;2.60;99.90
11107;DHT22;5607;48.302;14.294;2023-03-01T01:51:28;2.60;99.90
11107;DHT22;5607;48.302;14.294;2023-03-01T01:54:32;2.60;99.90
11107;DHT22;5607;48.302;14.294;2023-03-01T01:57:41;2.70;99.90
11107;DHT22;5607;48.302;14.294;2023-03-01T02:00:31;2.70;99.90
11107;DHT22;5607;48.302;14.294;2023-03-01T02:03:23;2.80;99.90
11107;DHT22;5607;48.302;14.294;2023-03-01T02:06:22;2.80;99.90
11107;DHT22;5607;48.302;14.294;2023-03-01T02:09:15;2.70;99.90
11107;DHT22;5607;48.302;14.294;2023-03-01T02:12:02;2.80;99.90
11107;DHT22;5607;48.302;14.294;2023-03-01T02:14:51;2.70;99.90
11107;DHT22;5607;48.302;14.294;2023-03-01T02:17:37;2.80;99.90
11107;DHT22;5607;48.302;14.294;2023-03-01T02:23:11;2.90;99.90
11107;DHT22;5607;48.302;14.294;2023-03-01T02:26:01;2.80;99.90
11107;DHT22;5607;48.302;14.294;2023-03-01T02:28:48;2.80;99.90
11107;DHT22;5607;48.302;14.294;2023-03-01T02:31:34;2.80;99.90
11107;DHT22;5607;48.302;14.294;2023-03-01T02:34:31;2.80;99.90
11107;DHT22;5607;48.302;14.294;2023-03-01T02:37:19;2.70;99.90
11107;DHT22;5607;48.302;14.294;2023-03-01T02:40:11;2.60;99.90
11107;DHT22;5607;48.302;14.294;2023-03-01T02:43:03;2.60;99.90
11107;DHT22;5607;48.302;14.294;2023-03-01T02:45:58;2.50;99.90
11107;DHT22;5607;48.302;14.294;2023-03-01T02:48:51;2.50;99.90
11107;DHT22;5607;48.302;14.294;2023-03-01T02:54:40;2.50;99.90
11107;DHT22;5607;48.302;14.294;2023-03-01T02:57:32;2.40;99.90
11107;DHT22;5607;48.302;14.294;2023-03-01T03:00:22;2.40;99.90
11107;DHT22;5607;48.302;14.294;2023-03-01T03:03:13;2.40;99.90
11107;DHT22;5607;48.302;14.294;2023-03-01T03:06:03;2.40;99.90
11107;DHT22;5607;48.302;14.294;2023-03-01T03:08:49;2.40;99.90
11107;DHT22;5607;48.302;14.294;2023-03-01T03:11:36;2.30;99.90
11107;DHT22;5607;48.302;14.294;2023-03-01T03:14:23;2.30;99.90
11107;DHT22;5607;48.302;14.294;2023-03-01T03:17:09;2.40;99.90
11107;DHT22;5607;48.302;14.294;2023-03-01T03:19:56;2.50;99.90
11107;DHT22;5607;48.302;14.294;2023-03-01T03:22:42;2.60;99.90
11107;DHT22;5607;48.302;14.294;2023-03-01T03:25:29;2.60;99.90
11107;DHT22;5607;48.302;14.294;2023-03-01T03:28:16;2.60;99.90
11107;DHT22;5607;48.302;14.294;2023-03-01T03:31:03;2.60;99.90
11107;DHT22;5607;48.302;14.294;2023-03-01T03:33:52;2.60;99.90
11107;DHT22;5607;48.302;14.294;2023-03-01T03:36:39;2.70;99.90
11107;DHT22;5607;48.302;14.294;2023-03-01T03:39:26;2.70;99.90
11107;DHT22;5607;48.302;14.294;2023-03-01T03:42:16;2.70;99.90
11107;DHT22;5607;48.302;14.294;2023-03-01T03:45:02;2.60;99.90
11107;DHT22;5607;48.302;14.294;2023-03-01T03:47:52;2.60;99.90
11107;DHT22;5607;48.302;14.294;2023-03-01T03:50:39;2.60;99.90
11107;DHT22;5607;48.302;14.294;2023-03-01T03:53:27;2.60;99.90
11107;DHT22;5607;48.302;14.294;2023-03-01T03:56:15;2.70;99.90
11107;DHT22;5607;48.302;14.294;2023-03-01T03:59:01;2.50;99.90
11107;DHT22;5607;48.302;14.294;2023-03-01T04:01:48;2.40;99.90
11107;DHT22;5607;48.302;14.294;2023-03-01T04:04:34;2.40;99.90
11107;DHT22;5607;48.302;14.294;2023-03-01T04:07:21;2.30;99.90
11107;DHT22;5607;48.302;14.294;2023-03-01T04:10:09;2.30;99.90
11107;DHT22;5607;48.302;14.294;2023-03-01T04:12:58;2.30;99.90
11107;DHT22;5607;48.302;14.294;2023-03-01T04:15:48;2.30;99.90
11107;DHT22;5607;48.302;14.294;2023-03-01T04:18:36;2.30;99.90
11107;DHT22;5607;48.302;14.294;2023-03-01T04:21:23;2.40;99.90
11107;DHT22;5607;48.302;14.294;2023-03-01T04:24:10;2.40;99.90
11107;DHT22;5607;48.302;14.294;2023-03-01T04:26:57;2.30;99.90
11107;DHT22;5607;48.302;14.294;2023-03-01T04:29:43;2.30;99.90
11107;DHT22;5607;48.302;14.294;2023-03-01T04:32:30;2.30;99.90
11107;DHT22;5607;48.302;14.294;2023-03-01T04:35:16;2.30;99.90
11107;DHT22;5607;48.302;14.294;2023-03-01T04:38:03;2.30;99.90
11107;DHT22;5607;48.302;14.294;2023-03-01T04:40:51;2.40;99.90
11107;DHT22;5607;48.302;14.294;2023-03-01T04:43:37;2.40;99.90
11107;DHT22;5607;48.302;14.294;2023-03-01T04:46:24;2.40;99.90
11107;DHT22;5607;48.302;14.294;2023-03-01T04:49:11;2.40;99.90
11107;DHT22;5607;48.302;14.294;2023-03-01T04:51:58;2.40;99.90
11107;DHT22;5607;48.302;14.294;2023-03-01T04:54:48;2.40;99.90
11107;DHT22;5607;48.302;14.294;2023-03-01T04:57:34;2.50;99.90
11107;DHT22;5607;48.302;14.294;2023-03-01T05:00:22;2.40;99.90
11107;DHT22;5607;48.302;14.294;2023-03-01T05:03:08;2.30;99.90
11107;DHT22;5607;48.302;14.294;2023-03-01T05:05:58;2.30;99.90
11107;DHT22;5607;48.302;14.294;2023-03-01T05:08:45;2.30;99.90
11107;DHT22;5607;48.302;14.294;2023-03-01T05:11:32;2.20;99.90
11107;DHT22;5607;48.302;14.294;2023-03-01T05:14:21;2.20;99.90
11107;DHT22;5607;48.302;14.294;2023-03-01T05:17:09;2.20;99.90
11107;DHT22;5607;48.302;14.294;2023-03-01T05:19:55;2.20;99.90
11107;DHT22;5607;48.302;14.294;2023-03-01T05:22:42;2.10;99.90
11107;DHT22;5607;48.302;14.294;2023-03-01T05:25:28;2.20;99.90
11107;DHT22;5607;48.302;14.294;2023-03-01T05:28:19;2.20;99.90
11107;DHT22;5607;48.302;14.294;2023-03-01T05:31:06;2.30;99.90
11107;DHT22;5607;48.302;14.294;2023-03-01T05:33:55;2.40;99.90
11107;DHT22;5607;48.302;14.294;2023-03-01T05:36:42;2.40;99.90
11107;DHT22;5607;48.302;14.294;2023-03-01T05:39:29;2.40;99.90
11107;DHT22;5607;48.302;14.294;2023-03-01T05:42:17;2.30;99.90
11107;DHT22;5607;48.302;14.294;2023-03-01T05:45:04;2.40;99.90
11107;DHT22;5607;48.302;14.294;2023-03-01T05:47:55;2.40;99.90
11107;DHT22;5607;48.302;14.294;2023-03-01T05:50:43;2.40;99.90
11107;DHT22;5607;48.302;14.294;2023-03-01T05:53:30;2.30;99.90
11107;DHT22;5607;48.302;14.294;2023-03-01T05:56:17;2.20;99.90
11107;DHT22;5607;48.302;14.294;2023-03-01T05:59:04;2.20;99.90
11107;DHT22;5607;48.302;14.294;2023-03-01T06:01:51;2.20;99.90
11107;DHT22;5607;48.302;14.294;2023-03-01T06:04:37;2.20;99.90
11107;DHT22;5607;48.302;14.294;2023-03-01T06:07:24;2.20;99.90
11107;DHT22;5607;48.302;14.294;2023-03-01T06:10:11;2.10;99.90
11107;DHT22;5607;48.302;14.294;2023-03-01T06:12:58;2.20;99.90
11107;DHT22;5607;48.302;14.294;2023-03-01T06:15:45;2.20;99.90
11107;DHT22;5607;48.302;14.294;2023-03-01T06:18:31;2.30;99.90
11107;DHT22;5607;48.302;14.294;2023-03-01T06:21:18;2.30;99.90
11107;DHT22;5607;48.302;14.294;2023-03-01T06:24:05;2.30;99.90
11107;DHT22;5607;48.302;14.294;2023-03-01T06:26:53;2.30;99.90
11107;DHT22;5607;48.302;14.294;2023-03-01T06:29:39;2.40;99.90
11107;DHT22;5607;48.302;14.294;2023-03-01T06:32:27;2.50;99.90
11107;DHT22;5607;48.302;14.294;2023-03-01T06:35:14;2.60;99.90
11107;DHT22;5607;48.302;14.294;2023-03-01T06:38:05;2.60;99.90
11107;DHT22;5607;48.302;14.294;2023-03-01T06:40:55;2.70;99.90
11107;DHT22;5607;48.302;14.294;2023-03-01T06:43:42;2.60;99.90
11107;DHT22;5607;48.302;14.294;2023-03-01T06:46:29;2.70;99.90
11107;DHT22;5607;48.302;14.294;2023-03-01T06:49:15;2.70;99.90
11107;DHT22;5607;48.302;14.294;2023-03-01T06:52:03;2.80;99.90
11107;DHT22;5607;48.302;14.294;2023-03-01T06:54:50;2.80;99.90
11107;DHT22;5607;48.302;14.294;2023-03-01T06:57:37;2.80;99.90
11107;DHT22;5607;48.302;14.294;2023-03-01T07:00:24;2.90;99.90
11107;DHT22;5607;48.302;14.294;2023-03-01T07:03:11;2.90;99.90
11107;DHT22;5607;48.302;14.294;2023-03-01T07:05:58;3.00;99.90
11107;DHT22;5607;48.302;14.294;2023-03-01T07:08:44;3.10;99.90
11107;DHT22;5607;48.302;14.294;2023-03-01T07:11:31;3.10;99.90
11107;DHT22;5607;48.302;14.294;2023-03-01T07:14:18;3.20;99.90
11107;DHT22;5607;48.302;14.294;2023-03-01T07:17:06;3.20;99.90
11107;DHT22;5607;48.302;14.294;2023-03-01T07:19:52;3.20;99.90
11107;DHT22;5607;48.302;14.294;2023-03-01T07:22:39;3.30;99.90
11107;DHT22;5607;48.302;14.294;2023-03-01T07:25:28;3.30;99.90
11107;DHT22;5607;48.302;14.294;2023-03-01T07:28:14;3.40;99.90
11107;DHT22;5607;48.302;14.294;2023-03-01T07:31:02;3.50;99.90
11107;DHT22;5607;48.302;14.294;2023-03-01T07:33:48;3.60;99.90
11107;DHT22;5607;48.302;14.294;2023-03-01T07:36:35;3.60;99.90
11107;DHT22;5607;48.302;14.294;2023-03-01T07:39:21;3.70;99.90
11107;DHT22;5607;48.302;14.294;2023-03-01T07:42:09;3.70;99.90
11107;DHT22;5607;48.302;14.294;2023-03-01T07:44:55;3.80;99.90
11107;DHT22;5607;48.302;14.294;2023-03-01T07:47:42;3.90;99.90
11107;DHT22;5607;48.302;14.294;2023-03-01T07:50:28;4.00;99.90
11107;DHT22;5607;48.302;14.294;2023-03-01T07:53:15;4.10;99.90
11107;DHT22;5607;48.302;14.294;2023-03-01T07:56:06;4.20;99.90
11107;DHT22;5607;48.302;14.294;2023-03-01T07:58:55;4.30;99.90
11107;DHT22;5607;48.302;14.294;2023-03-01T08:01:42;4.40;99.90
11107;DHT22;5607;48.302;14.294;2023-03-01T08:04:28;4.40;99.90
11107;DHT22;5607;48.302;14.294;2023-03-01T08:07:15;4.50;99.90
11107;DHT22;5607;48.302;14.294;2023-03-01T08:10:01;4.60;99.90
11107;DHT22;5607;48.302;14.294;2023-03-01T08:12:50;4.80;99.90
11107;DHT22;5607;48.302;14.294;2023-03-01T08:15:39;4.90;99.90
11107;DHT22;5607;48.302;14.294;2023-03-01T08:18:25;5.20;99.90
11107;DHT22;5607;48.302;14.294;2023-03-01T08:21:13;5.50;99.90
11107;DHT22;5607;48.302;14.294;2023-03-01T08:24:01;5.60;99.90
11107;DHT22;5607;48.302;14.294;2023-03-01T08:26:49;5.80;99.90
11107;DHT22;5607;48.302;14.294;2023-03-01T08:29:35;6.00;99.90
11107;DHT22;5607;48.302;14.294;2023-03-01T08:32:22;6.10;99.90
11107;DHT22;5607;48.302;14.294;2023-03-01T08:35:08;6.10;99.90
11107;DHT22;5607;48.302;14.294;2023-03-01T08:37:55;6.30;99.90
11107;DHT22;5607;48.302;14.294;2023-03-01T08:40:41;6.30;99.90
11107;DHT22;5607;48.302;14.294;2023-03-01T08:43:28;6.50;99.90
11107;DHT22;5607;48.302;14.294;2023-03-01T08:46:15;6.60;99.90
11107;DHT22;5607;48.302;14.294;2023-03-01T08:49:05;6.50;99.90
11107;DHT22;5607;48.302;14.294;2023-03-01T08:51:57;6.60;99.90
11107;DHT22;5607;48.302;14.294;2023-03-01T08:54:44;6.80;99.90
11107;DHT22;5607;48.302;14.294;2023-03-01T08:57:30;6.90;99.90
11107;DHT22;5607;48.302;14.294;2023-03-01T09:00:17;6.90;99.90
11107;DHT22;5607;48.302;14.294;2023-03-01T09:03:05;6.90;99.90
11107;DHT22;5607;48.302;14.294;2023-03-01T09:05:52;7.10;99.90
11107;DHT22;5607;48.302;14.294;2023-03-01T09:08:40;7.20;99.90
11107;DHT22;5607;48.302;14.294;2023-03-01T09:11:28;7.40;99.90
11107;DHT22;5607;48.302;14.294;2023-03-01T09:14:15;7.60;99.90
11107;DHT22;5607;48.302;14.294;2023-03-01T09:17:02;7.50;99.90
11107;DHT22;5607;48.302;14.294;2023-03-01T09:19:49;7.50;99.90
11107;DHT22;5607;48.302;14.294;2023-03-01T09:22:35;7.40;99.90
11107;DHT22;5607;48.302;14.294;2023-03-01T09:25:22;7.40;99.90
11107;DHT22;5607;48.302;14.294;2023-03-01T09:28:09;7.50;99.90
11107;DHT22;5607;48.302;14.294;2023-03-01T09:31:00;7.60;99.90
11107;DHT22;5607;48.302;14.294;2023-03-01T09:33:48;7.70;99.90
11107;DHT22;5607;48.302;14.294;2023-03-01T09:36:36;7.90;99.90
11107;DHT22;5607;48.302;14.294;2023-03-01T09:39:23;7.80;99.90
11107;DHT22;5607;48.302;14.294;2023-03-01T09:42:11;7.90;99.90
11107;DHT22;5607;48.302;14.294;2023-03-01T09:45:05;7.80;99.90
11107;DHT22;5607;48.302;14.294;2023-03-01T09:47:57;7.80;99.90
11107;DHT22;5607;48.302;14.294;2023-03-01T09:50:45;7.90;99.90
11107;DHT22;5607;48.302;14.294;2023-03-01T09:53:32;7.90;99.90
11107;DHT22;5607;48.302;14.294;2023-03-01T09:56:22;7.90;99.90
11107;DHT22;5607;48.302;14.294;2023-03-01T09:59:21;8.00;99.90
11107;DHT22;5607;48.302;14.294;2023-03-01T10:05:27;7.70;99.90
11107;DHT22;5607;48.302;14.294;2023-03-01T10:08:34;7.80;99.90
11107;DHT22;5607;48.302;14.294;2023-03-01T10:11:31;7.80;99.90
11107;DHT22;5607;48.302;14.294;2023-03-01T10:14:36;7.80;99.90
11107;DHT22;5607;48.302;14.294;2023-03-01T10:20:21;8.00;99.90
11107;DHT22;5607;48.302;14.294;2023-03-01T10:23:20;8.00;99.90
11107;DHT22;5607;48.302;14.294;2023-03-01T10:29:16;8.20;99.90
11107;DHT22;5607;48.302;14.294;2023-03-01T10:32:02;8.30;99.90
11107;DHT22;5607;48.302;14.294;2023-03-01T10:34:52;8.40;99.90
11107;DHT22;5607;48.302;14.294;2023-03-01T10:37:45;8.30;99.90
11107;DHT22;5607;48.302;14.294;2023-03-01T10:41:04;8.30;99.90
11107;DHT22;5607;48.302;14.294;2023-03-01T10:43:53;8.30;99.90
11107;DHT22;5607;48.302;14.294;2023-03-01T10:46:42;8.50;99.90
11107;DHT22;5607;48.302;14.294;2023-03-01T10:49:29;8.50;99.90
11107;DHT22;5607;48.302;14.294;2023-03-01T10:52:18;8.50;99.90
11107;DHT22;5607;48.302;14.294;2023-03-01T10:58:11;8.70;99.90
11107;DHT22;5607;48.302;14.294;2023-03-01T11:06:59;8.90;99.90
11107;DHT22;5607;48.302;14.294;2023-03-01T11:09:46;9.00;99.90
11107;DHT22;5607;48.302;14.294;2023-03-01T11:12:33;9.10;99.90
11107;DHT22;5607;48.302;14.294;2023-03-01T11:15:23;9.10;99.90
11107;DHT22;5607;48.302;14.294;2023-03-01T11:18:21;9.10;99.90
11107;DHT22;5607;48.302;14.294;2023-03-01T11:21:09;9.10;99.90
11107;DHT22;5607;48.302;14.294;2023-03-01T11:23:57;9.30;99.90
11107;DHT22;5607;48.302;14.294;2023-03-01T11:26:50;9.40;99.90
11107;DHT22;5607;48.302;14.294;2023-03-01T11:29:43;9.50;99.90
11107;DHT22;5607;48.302;14.294;2023-03-01T11:32:38;9.60;99.90
11107;DHT22;5607;48.302;14.294;2023-03-01T11:35:28;9.70;99.90
11107;DHT22;5607;48.302;14.294;2023-03-01T11:38:23;9.80;99.90
11107;DHT22;5607;48.302;14.294;2023-03-01T11:41:18;9.90;99.90
11107;DHT22;5607;48.302;14.294;2023-03-01T11:44:21;9.90;99.90
11107;DHT22;5607;48.302;14.294;2023-03-01T12:06:03;10.40;99.90
11107;DHT22;5607;48.302;14.294;2023-03-01T12:08:59;10.40;99.90
11107;DHT22;5607;48.302;14.294;2023-03-01T12:15:46;10.50;99.90
11107;DHT22;5607;48.302;14.294;2023-03-01T12:27:55;10.90;99.90
11107;DHT22;5607;48.302;14.294;2023-03-01T12:34:16;11.10;99.90
11107;DHT22;5607;48.302;14.294;2023-03-01T12:37:10;11.20;99.90
11107;DHT22;5607;48.302;14.294;2023-03-01T12:40:31;11.30;99.90
11107;DHT22;5607;48.302;14.294;2023-03-01T12:49:39;11.40;99.90
11107;DHT22;5607;48.302;14.294;2023-03-01T12:56:05;11.20;99.90
11107;DHT22;5607;48.302;14.294;2023-03-01T12:59:11;11.20;99.90
11107;DHT22;5607;48.302;14.294;2023-03-01T13:08:08;11.30;99.90
11107;DHT22;5607;48.302;14.294;2023-03-01T13:11:02;11.40;99.90
11107;DHT22;5607;48.302;14.294;2023-03-01T13:13:51;11.40;99.90
11107;DHT22;5607;48.302;14.294;2023-03-01T13:16:41;11.50;99.90
11107;DHT22;5607;48.302;14.294;2023-03-01T13:19:35;11.50;99.90
11107;DHT22;5607;48.302;14.294;2023-03-01T13:22:26;11.20;99.90
11107;DHT22;5607;48.302;14.294;2023-03-01T13:25:19;11.30;99.90
11107;DHT22;5607;48.302;14.294;2023-03-01T13:34:38;11.30;99.90
11107;DHT22;5607;48.302;14.294;2023-03-01T13:37:36;11.40;99.90
11107;DHT22;5607;48.302;14.294;2023-03-01T13:40:56;11.50;99.90
11107;DHT22;5607;48.302;14.294;2023-03-01T13:43:35;11.50;99.90
11107;DHT22;5607;48.302;14.294;2023-03-01T13:46:24;11.50;99.90
11107;DHT22;5607;48.302;14.294;2023-03-01T13:49:11;11.60;99.90
11107;DHT22;5607;48.302;14.294;2023-03-01T13:52:03;11.60;99.90
11107;DHT22;5607;48.302;14.294;2023-03-01T13:54:51;11.70;99.90
11107;DHT22;5607;48.302;14.294;2023-03-01T13:57:40;11.90;99.90
11107;DHT22;5607;48.302;14.294;2023-03-01T14:00:38;11.80;99.90
11107;DHT22;5607;48.302;14.294;2023-03-01T14:03:26;11.80;99.90
11107;DHT22;5607;48.302;14.294;2023-03-01T14:06:16;11.70;99.90
11107;DHT22;5607;48.302;14.294;2023-03-01T14:09:10;11.70;99.90
11107;DHT22;5607;48.302;14.294;2023-03-01T14:15:21;11.70;99.90
11107;DHT22;5607;48.302;14.294;2023-03-01T14:18:14;11.60;99.90
11107;DHT22;5607;48.302;14.294;2023-03-01T14:21:12;11.70;99.90
11107;DHT22;5607;48.302;14.294;2023-03-01T14:24:02;11.60;99.90
11107;DHT22;5607;48.302;14.294;2023-03-01T14:26:49;11.60;99.90
11107;DHT22;5607;48.302;14.294;2023-03-01T14:29:37;11.50;99.90
11107;DHT22;5607;48.302;14.294;2023-03-01T14:32:26;11.40;99.90
11107;DHT22;5607;48.302;14.294;2023-03-01T14:35:25;11.30;99.90
11107;DHT22;5607;48.302;14.294;2023-03-01T14:38:20;11.20;99.90
11107;DHT22;5607;48.302;14.294;2023-03-01T14:41:22;11.30;99.90
11107;DHT22;5607;48.302;14.294;2023-03-01T14:44:14;11.20;99.90
11107;DHT22;5607;48.302;14.294;2023-03-01T14:47:05;11.10;99.90
11107;DHT22;5607;48.302;14.294;2023-03-01T14:49:57;11.10;99.90
11107;DHT22;5607;48.302;14.294;2023-03-01T14:52:48;11.20;99.90
11107;DHT22;5607;48.302;14.294;2023-03-01T14:55:41;11.20;99.90
11107;DHT22;5607;48.302;14.294;2023-03-01T14:58:31;11.20;99.90
11107;DHT22;5607;48.302;14.294;2023-03-01T15:01:19;11.20;99.90
11107;DHT22;5607;48.302;14.294;2023-03-01T15:04:06;11.20;99.90
11107;DHT22;5607;48.302;14.294;2023-03-01T15:06:55;11.20;99.90
11107;DHT22;5607;48.302;14.294;2023-03-01T15:09:51;11.20;99.90
11107;DHT22;5607;48.302;14.294;2023-03-01T15:12:38;11.10;99.90
11107;DHT22;5607;48.302;14.294;2023-03-01T15:15:34;11.00;99.90
11107;DHT22;5607;48.302;14.294;2023-03-01T15:18:26;10.90;99.90
11107;DHT22;5607;48.302;14.294;2023-03-01T15:21:22;10.80;99.90
11107;DHT22;5607;48.302;14.294;2023-03-01T15:27:12;10.90;99.90
11107;DHT22;5607;48.302;14.294;2023-03-01T15:30:03;10.70;99.90
11107;DHT22;5607;48.302;14.294;2023-03-01T15:33:16;10.70;99.90
11107;DHT22;5607;48.302;14.294;2023-03-01T15:39:35;10.60;99.90
11107;DHT22;5607;48.302;14.294;2023-03-01T15:48:18;10.20;99.90
11107;DHT22;5607;48.302;14.294;2023-03-01T15:51:09;10.10;99.90
11107;DHT22;5607;48.302;14.294;2023-03-01T15:54:01;10.10;99.90
11107;DHT22;5607;48.302;14.294;2023-03-01T15:56:50;10.10;99.90
11107;DHT22;5607;48.302;14.294;2023-03-01T15:59:36;10.00;99.90
11107;DHT22;5607;48.302;14.294;2023-03-01T16:02:23;9.80;99.90
11107;DHT22;5607;48.302;14.294;2023-03-01T16:05:16;9.80;99.90
11107;DHT22;5607;48.302;14.294;2023-03-01T16:08:18;9.70;99.90
11107;DHT22;5607;48.302;14.294;2023-03-01T16:11:05;9.70;99.90
11107;DHT22;5607;48.302;14.294;2023-03-01T16:14:00;9.60;99.90
11107;DHT22;5607;48.302;14.294;2023-03-01T16:16:46;9.60;99.90
11107;DHT22;5607;48.302;14.294;2023-03-01T16:19:34;9.50;99.90
11107;DHT22;5607;48.302;14.294;2023-03-01T16:22:20;9.40;99.90
11107;DHT22;5607;48.302;14.294;2023-03-01T16:25:12;9.30;99.90
11107;DHT22;5607;48.302;14.294;2023-03-01T16:28:01;9.30;99.90
11107;DHT22;5607;48.302;14.294;2023-03-01T16:30:50;9.10;99.90
11107;DHT22;5607;48.302;14.294;2023-03-01T16:33:37;9.10;99.90
11107;DHT22;5607;48.302;14.294;2023-03-01T16:36:24;9.00;99.90
11107;DHT22;5607;48.302;14.294;2023-03-01T16:39:14;8.90;99.90
11107;DHT22;5607;48.302;14.294;2023-03-01T16:42:00;8.70;99.90
11107;DHT22;5607;48.302;14.294;2023-03-01T16:44:47;8.70;99.90
11107;DHT22;5607;48.302;14.294;2023-03-01T16:47:34;8.50;99.90
11107;DHT22;5607;48.302;14.294;2023-03-01T16:50:21;8.50;99.90
11107;DHT22;5607;48.302;14.294;2023-03-01T16:53:07;8.40;99.90
11107;DHT22;5607;48.302;14.294;2023-03-01T16:55:56;8.20;99.90
11107;DHT22;5607;48.302;14.294;2023-03-01T16:58:43;8.10;99.90
11107;DHT22;5607;48.302;14.294;2023-03-01T17:01:30;8.00;99.90
11107;DHT22;5607;48.302;14.294;2023-03-01T17:04:21;8.00;99.90
11107;DHT22;5607;48.302;14.294;2023-03-01T17:07:07;7.90;99.90
11107;DHT22;5607;48.302;14.294;2023-03-01T17:09:54;7.90;99.90
11107;DHT22;5607;48.302;14.294;2023-03-01T17:12:40;7.90;99.90
11107;DHT22;5607;48.302;14.294;2023-03-01T17:15:27;7.80;99.90
11107;DHT22;5607;48.302;14.294;2023-03-01T17:18:13;7.70;99.90
11107;DHT22;5607;48.302;14.294;2023-03-01T17:21:00;7.70;99.90
11107;DHT22;5607;48.302;14.294;2023-03-01T17:23:47;7.60;99.90
11107;DHT22;5607;48.302;14.294;2023-03-01T17:26:35;7.50;99.90
11107;DHT22;5607;48.302;14.294;2023-03-01T17:29:22;7.40;99.90
11107;DHT22;5607;48.302;14.294;2023-03-01T17:32:08;7.30;99.90
11107;DHT22;5607;48.302;14.294;2023-03-01T17:34:55;7.20;99.90
11107;DHT22;5607;48.302;14.294;2023-03-01T17:37:42;7.20;99.90
11107;DHT22;5607;48.302;14.294;2023-03-01T17:40:31;7.10;99.90
11107;DHT22;5607;48.302;14.294;2023-03-01T17:43:18;7.10;99.90
11107;DHT22;5607;48.302;14.294;2023-03-01T17:46:07;7.10;99.90
11107;DHT22;5607;48.302;14.294;2023-03-01T17:48:54;7.10;99.90
11107;DHT22;5607;48.302;14.294;2023-03-01T17:51:41;7.00;99.90
11107;DHT22;5607;48.302;14.294;2023-03-01T17:54:27;6.90;99.90
11107;DHT22;5607;48.302;14.294;2023-03-01T17:57:14;6.90;99.90
11107;DHT22;5607;48.302;14.294;2023-03-01T18:00:01;6.90;99.90
11107;DHT22;5607;48.302;14.294;2023-03-01T18:02:48;6.80;99.90
11107;DHT22;5607;48.302;14.294;2023-03-01T18:05:35;6.90;99.90
11107;DHT22;5607;48.302;14.294;2023-03-01T18:08:25;6.90;99.90
11107;DHT22;5607;48.302;14.294;2023-03-01T18:11:12;6.80;99.90
11107;DHT22;5607;48.302;14.294;2023-03-01T18:13:59;6.80;99.90
11107;DHT22;5607;48.302;14.294;2023-03-01T18:16:47;6.80;99.90
11107;DHT22;5607;48.302;14.294;2023-03-01T18:19:34;6.70;99.90
11107;DHT22;5607;48.302;14.294;2023-03-01T18:22:21;6.70;99.90
11107;DHT22;5607;48.302;14.294;2023-03-01T18:25:08;6.60;99.90
11107;DHT22;5607;48.302;14.294;2023-03-01T18:27:54;6.50;99.90
11107;DHT22;5607;48.302;14.294;2023-03-01T18:30:41;6.50;99.90
11107;DHT22;5607;48.302;14.294;2023-03-01T18:33:28;6.50;99.90
11107;DHT22;5607;48.302;14.294;2023-03-01T18:36:17;6.60;99.90
11107;DHT22;5607;48.302;14.294;2023-03-01T18:39:07;6.50;99.90
11107;DHT22;5607;48.302;14.294;2023-03-01T18:41:53;6.40;99.90
11107;DHT22;5607;48.302;14.294;2023-03-01T18:44:40;6.50;99.90
11107;DHT22;5607;48.302;14.294;2023-03-01T18:47:27;6.50;99.90
11107;DHT22;5607;48.302;14.294;2023-03-01T18:50:17;6.40;99.90
11107;DHT22;5607;48.302;14.294;2023-03-01T18:53:04;6.40;99.90
11107;DHT22;5607;48.302;14.294;2023-03-01T18:55:50;6.30;99.90
11107;DHT22;5607;48.302;14.294;2023-03-01T18:58:37;6.20;99.90
11107;DHT22;5607;48.302;14.294;2023-03-01T19:01:25;6.10;99.90
11107;DHT22;5607;48.302;14.294;2023-03-01T19:04:13;6.10;99.90
11107;DHT22;5607;48.302;14.294;2023-03-01T19:07:00;6.10;99.90
11107;DHT22;5607;48.302;14.294;2023-03-01T19:09:47;6.20;99.90
11107;DHT22;5607;48.302;14.294;2023-03-01T19:12:34;6.20;99.90
11107;DHT22;5607;48.302;14.294;2023-03-01T19:15:21;6.20;99.90
11107;DHT22;5607;48.302;14.294;2023-03-01T19:18:08;6.20;99.90
11107;DHT22;5607;48.302;14.294;2023-03-01T19:20:58;6.10;99.90
11107;DHT22;5607;48.302;14.294;2023-03-01T19:23:49;6.10;99.90
11107;DHT22;5607;48.302;14.294;2023-03-01T19:26:36;6.10;99.90
11107;DHT22;5607;48.302;14.294;2023-03-01T19:29:26;6.00;99.90
11107;DHT22;5607;48.302;14.294;2023-03-01T19:32:13;5.90;99.90
11107;DHT22;5607;48.302;14.294;2023-03-01T19:35:00;5.80;99.90
11107;DHT22;5607;48.302;14.294;2023-03-01T19:37:47;5.80;99.90
11107;DHT22;5607;48.302;14.294;2023-03-01T19:40:35;5.80;99.90
11107;DHT22;5607;48.302;14.294;2023-03-01T19:43:22;5.80;99.90